sensor_id;sensor_type;location;lat;lon;timestamp;pressure;altitude;pressure_sealevel;temperature;humidity
45939;BME280;31650;48.818;9.116;2022-09-12T00:12:02;98183.47;;;10.59;100.00
45939;BME280;31650;48.818;9.116;2022-09-12T00:27:03;98172.94;;;10.11;100.00
45939;BME280;31650;48.818;9.116;2022-09-12T00:42:04;98161.06;;;9.99;100.00
45939;BME280;31650;48.818;9.116;2022-09-12T00:57:05;98159.50;;;10.36;100.00
45939;BME280;31650;48.818;9.116;2022-09-12T01:12:08;98142.22;;;10.04;100.00
45939;BME280;31650;48.818;9.116;2022-09-12T01:42:20;98119.78;;;9.50;100.00
45939;BME280;31650;48.818;9.116;2022-09-12T01:57:30;98112.03;;;9.54;100.00
45939;BME280;31650;48.818;9.116;2022-09-12T02:12:48;98088.06;;;9.24;100.00
45939;BME280;31650;48.818;9.116;2022-09-12T02:27:53;98088.66;;;9.13;100.00
45939;BME280;31650;48.818;9.116;2022-09-12T02:42:54;98078.88;;;9.12;100.00
45939;BME280;31650;48.818;9.116;2022-09-12T02:57:55;98068.84;;;8.92;100.00
45939;BME280;31650;48.818;9.116;2022-09-12T03:42:59;98075.53;;;9.03;100.00
45939;BME280;31650;48.818;9.116;2022-09-12T03:57:59;98075.44;;;8.63;100.00
45939;BME280;31650;48.818;9.116;2022-09-12T04:12:59;98084.00;;;8.60;100.00
45939;BME280;31650;48.818;9.116;2022-09-12T04:27:59;98074.16;;;8.46;100.00
45939;BME280;31650;48.818;9.116;2022-09-12T04:43:00;98073.25;;;8.32;100.00
45939;BME280;31650;48.818;9.116;2022-09-12T04:58:00;98058.47;;;8.28;100.00
45939;BME280;31650;48.818;9.116;2022-09-12T05:13:01;98061.97;;;8.90;100.00
45939;BME280;31650;48.818;9.116;2022-09-12T05:28:01;98061.31;;;8.81;100.00
45939;BME280;31650;48.818;9.116;2022-09-12T05:43:01;98063.63;;;9.37;100.00
45939;BME280;31650;48.818;9.116;2022-09-12T05:58:02;98076.88;;;9.92;100.00
45939;BME280;31650;48.818;9.116;2022-09-12T06:13:02;98070.88;;;10.42;100.00
45939;BME280;31650;48.818;9.116;2022-09-12T06:28:03;98060.16;;;11.11;100.00
45939;BME280;31650;48.818;9.116;2022-09-12T06:43:03;98055.34;;;11.81;100.00
45939;BME280;31650;48.818;9.116;2022-09-12T06:58:04;98064.38;;;12.79;100.00
45939;BME280;31650;48.818;9.116;2022-09-12T07:13:04;98064.53;;;14.89;100.00
45939;BME280;31650;48.818;9.116;2022-09-12T07:28:04;97991.41;;;16.95;100.00
45939;BME280;31650;48.818;9.116;2022-09-12T07:43:05;97979.94;;;18.41;100.00
45939;BME280;31650;48.818;9.116;2022-09-12T07:58:05;97963.38;;;20.05;100.00
45939;BME280;31650;48.818;9.116;2022-09-12T08:13:05;97965.03;;;21.05;100.00
45939;BME280;31650;48.818;9.116;2022-09-12T08:28:06;97960.34;;;22.12;100.00
45939;BME280;31650;48.818;9.116;2022-09-12T08:43:09;97966.97;;;22.40;100.00
45939;BME280;31650;48.818;9.116;2022-09-12T08:58:16;97950.69;;;23.42;100.00
45939;BME280;31650;48.818;9.116;2022-09-12T09:28:49;97943.47;;;24.57;95.36
45939;BME280;31650;48.818;9.116;2022-09-12T09:43:50;97946.47;;;24.47;91.81
45939;BME280;31650;48.818;9.116;2022-09-12T09:58:51;97944.50;;;25.20;69.34
45939;BME280;31650;48.818;9.116;2022-09-12T10:13:55;97933.00;;;25.35;67.14
45939;BME280;31650;48.818;9.116;2022-09-12T10:28:55;97926.50;;;25.80;70.69
45939;BME280;31650;48.818;9.116;2022-09-12T10:44:04;97917.94;;;26.07;61.55
45939;BME280;31650;48.818;9.116;2022-09-12T11:14:42;97884.88;;;26.41;50.93
45939;BME280;31650;48.818;9.116;2022-09-12T11:29:49;97859.22;;;27.43;47.29
45939;BME280;31650;48.818;9.116;2022-09-12T11:44:54;97860.31;;;26.95;45.46
45939;BME280;31650;48.818;9.116;2022-09-12T11:59:59;97837.59;;;27.40;50.23
45939;BME280;31650;48.818;9.116;2022-09-12T12:15:01;97838.81;;;26.95;39.99
45939;BME280;31650;48.818;9.116;2022-09-12T12:30:01;97810.00;;;27.38;39.87
45939;BME280;31650;48.818;9.116;2022-09-12T13:30:39;97765.25;;;25.43;48.78
45939;BME280;31650;48.818;9.116;2022-09-12T13:45:42;97755.69;;;24.64;47.78
45939;BME280;31650;48.818;9.116;2022-09-12T14:00:44;97732.97;;;24.17;46.08
45939;BME280;31650;48.818;9.116;2022-09-12T14:15:45;97715.69;;;24.29;45.06
45939;BME280;31650;48.818;9.116;2022-09-12T15:01:25;97683.97;;;24.75;49.51
45939;BME280;31650;48.818;9.116;2022-09-12T15:16:26;97665.34;;;27.02;39.19
45939;BME280;31650;48.818;9.116;2022-09-12T15:31:30;97661.19;;;26.78;41.50
45939;BME280;31650;48.818;9.116;2022-09-12T15:46:30;97648.19;;;27.51;39.42
45939;BME280;31650;48.818;9.116;2022-09-12T16:01:30;97636.16;;;26.99;38.92
45939;BME280;31650;48.818;9.116;2022-09-12T16:16:31;97628.59;;;24.48;43.80
45939;BME280;31650;48.818;9.116;2022-09-12T16:31:31;97627.28;;;23.05;59.95
45939;BME280;31650;48.818;9.116;2022-09-12T16:46:31;97612.25;;;22.23;69.63
45939;BME280;31650;48.818;9.116;2022-09-12T17:01:32;97620.25;;;21.35;86.81
45939;BME280;31650;48.818;9.116;2022-09-12T17:16:34;97626.34;;;20.94;94.60
45939;BME280;31650;48.818;9.116;2022-09-12T17:31:34;97623.19;;;19.65;100.00
45939;BME280;31650;48.818;9.116;2022-09-12T17:46:35;97627.69;;;18.25;100.00
45939;BME280;31650;48.818;9.116;2022-09-12T18:01:35;97637.03;;;17.37;100.00
45939;BME280;31650;48.818;9.116;2022-09-12T18:16:55;97647.31;;;16.79;100.00
45939;BME280;31650;48.818;9.116;2022-09-12T18:31:59;97651.47;;;16.39;100.00
45939;BME280;31650;48.818;9.116;2022-09-12T18:46:59;97661.50;;;15.81;100.00
45939;BME280;31650;48.818;9.116;2022-09-12T19:02:01;97652.75;;;15.84;100.00
45939;BME280;31650;48.818;9.116;2022-09-12T19:17:01;97666.09;;;15.21;100.00
45939;BME280;31650;48.818;9.116;2022-09-12T19:32:01;97652.31;;;14.88;100.00
45939;BME280;31650;48.818;9.116;2022-09-12T19:47:01;97643.09;;;14.51;100.00
45939;BME280;31650;48.818;9.116;2022-09-12T20:02:02;97641.03;;;14.41;100.00
45939;BME280;31650;48.818;9.116;2022-09-12T20:17:02;97652.16;;;14.34;100.00
45939;BME280;31650;48.818;9.116;2022-09-12T20:32:03;97640.47;;;14.00;100.00
45939;BME280;31650;48.818;9.116;2022-09-12T20:47:03;97620.16;;;13.96;100.00
45939;BME280;31650;48.818;9.116;2022-09-12T21:02:03;97636.31;;;13.80;100.00
45939;BME280;31650;48.818;9.116;2022-09-12T21:17:03;97638.66;;;13.55;100.00
45939;BME280;31650;48.818;9.116;2022-09-12T21:32:04;97638.47;;;13.45;100.00
45939;BME280;31650;48.818;9.116;2022-09-12T21:47:05;97637.81;;;13.37;100.00
45939;BME280;31650;48.818;9.116;2022-09-12T22:02:05;97630.53;;;13.14;100.00
45939;BME280;31650;48.818;9.116;2022-09-12T22:17:08;97625.47;;;12.77;100.00
45939;BME280;31650;48.818;9.116;2022-09-12T22:32:09;97603.59;;;12.61;100.00
45939;BME280;31650;48.818;9.116;2022-09-12T22:47:09;97600.38;;;13.21;100.00
45939;BME280;31650;48.818;9.116;2022-09-12T23:02:09;97590.72;;;13.64;100.00
45939;BME280;31650;48.818;9.116;2022-09-12T23:17:09;97603.72;;;13.57;100.00
45939;BME280;31650;48.818;9.116;2022-09-12T23:32:09;97600.31;;;13.33;100.00
45939;BME280;31650;48.818;9.116;2022-09-12T23:47:10;97581.28;;;12.92;100.00
